Latest Coastal Weather Observations for Dunalley

IDT60701

Issued at 10:32 am EST Saturday 30 May 2015 (issued every 10 minutes, with the page automatically refreshed every 10 minutes)

About coastal observations | Map of coastal stations | Coastal observations for TAS | Marine services | Other Formats
Station Details ID: 094254 Name: DUNALLEY (STROUD POINT) Lat: -42.90 Lon: 147.79 Height: 12.43 m
Data from the previous 72 hours. | See also: Recent months at Dunalley
Date/Time
EST
Temp

°C
Wind Pressure Rain
since 9am
mm
Weather Cloud Vis
km
Sea
Height
m
Swell
Dir
 
Speed
knots
Gust
knots
hPa Trend Height
m
Period
s
Dir
30/10:30am 15.4 NNW 13 26 1001.1 - 0.0 - - - - - - -
30/10:00am 14.9 NNW 11 23 1001.6 - 0.0 - - - - - - -
30/09:30am 12.1 NNE 7 12 1002.6 - 0.0 - - - - - - -
30/09:00am 10.8 NE 15 21 1003.6 - 0.0 - - - - - - -
30/08:30am 9.8 N 13 17 1004.0 - 0.0 - - - - - - -
30/08:00am 9.9 N 10 13 1004.5 - 0.0 - - - - - - -
30/07:30am 9.6 NNE 10 13 1004.9 - 0.0 - - - - - - -
30/07:00am 9.2 NNE 7 10 1005.4 - 0.0 - - - - - - -
30/06:30am 9.6 NNE 8 13 1005.9 - 0.0 - - - - - - -
30/06:00am 9.9 NNE 9 11 1006.3 - 0.0 - - - - - - -
30/05:30am 10.1 NNE 3 6 1006.4 - 0.0 - - - - - - -
30/05:00am 9.7 N 9 12 1006.9 - 0.0 - - - - - - -
30/04:30am 10.0 N 7 11 1007.2 - 0.0 - - - - - - -
30/04:00am 9.8 N 9 11 1007.5 - 0.0 - - - - - - -
30/03:30am 9.6 NNW 5 8 1007.9 - 0.0 - - - - - - -
30/03:00am 11.3 NNW 4 7 1008.6 - 0.0 - - - - - - -
30/02:30am 11.9 NW 8 14 1008.9 - 0.0 - - - - - - -
30/02:00am 12.1 NW 10 16 1009.0 - 0.0 - - - - - - -
30/01:30am 11.8 NW 10 15 1009.4 - 0.0 - - - - - - -
30/01:00am 12.5 NW 12 22 1009.7 - 0.0 - - - - - - -
30/12:30am 12.3 NW 10 16 1009.9 - 0.0 - - - - - - -
30/12:00am 11.8 NW 9 17 1010.2 - 0.0 - - - - - - -
 
Date/Time
EST
Temp

°C
Wind Pressure Rain
since 9am
mm
Weather Cloud Vis
km
Sea
Height
m
Swell
Dir
 
Speed
knots
Gust
knots
hPa Trend Height
m
Period
s
Dir
29/11:30pm 11.4 NNW 7 12 1010.6 - 0.0 - - - - - - -
29/11:00pm 11.6 NW 11 18 1010.7 - 0.0 - - - - - - -
29/10:30pm 11.5 NW 9 16 1011.0 - 0.0 - - - - - - -
29/10:00pm 10.4 NNW 9 14 1011.2 - 0.0 - - - - - - -
29/09:30pm 10.1 N 6 9 1011.6 - 0.0 - - - - - - -
29/09:00pm 10.0 N 5 8 1011.5 - 0.0 - - - - - - -
29/08:30pm 10.2 NNW 5 8 1011.8 - 0.0 - - - - - - -
29/08:00pm 9.8 NNW 7 10 1011.7 - 0.0 - - - - - - -
29/07:30pm 10.2 NNW 4 7 1011.8 - 0.0 - - - - - - -
29/07:00pm 10.4 NNW 4 9 1011.6 - 0.0 - - - - - - -
29/06:30pm 10.4 NNW 5 8 1011.6 - 0.0 - - - - - - -
29/06:00pm 10.9 NW 7 10 1011.6 - 0.0 - - - - - - -
29/05:30pm 11.2 NW 12 19 1011.4 - 0.0 - - - - - - -
29/05:00pm 11.3 NW 11 17 1011.6 - 0.0 - - - - - - -
29/04:30pm 11.6 NW 11 16 1011.5 - 0.0 - - - - - - -
29/04:00pm 12.3 NW 8 13 1011.5 - 0.0 - - - - - - -
29/03:30pm 12.5 NW 9 14 1011.3 - 0.0 - - - - - - -
29/03:00pm 12.6 NW 8 14 1011.0 - 0.0 - - - - - - -
29/02:30pm 11.8 NW 9 13 1011.1 - 0.0 - - - - - - -
29/02:00pm 12.6 WNW 10 17 1010.9 - 0.0 - - - - - - -
29/01:30pm 12.6 WNW 15 20 1010.8 - 0.0 - - - - - - -
29/01:00pm 12.4 WNW 13 18 1011.0 - 0.0 - - - - - - -
29/12:30pm 12.0 WNW 11 17 1011.0 - 0.0 - - - - - - -
29/12:00pm 11.3 NW 9 13 1010.9 - 0.0 - - - - - - -
29/11:30am 10.9 NW 15 23 1011.1 - 0.0 - - - - - - -
29/11:00am 10.4 WNW 15 23 1011.2 - 0.0 - - - - - - -
29/10:30am 10.0 WNW 16 24 1011.4 - 0.0 - - - - - - -
29/10:00am 9.6 WNW 12 17 1011.2 - 0.0 - - - - - - -
29/09:33am 8.8 WNW 16 26 1011.2 - 0.0 - - - - - - -
29/09:30am 8.7 NW 17 26 1011.2 - 0.0 - - - - - - -
29/09:25am 8.6 NW 16 26 1011.1 - 0.0 - - - - - - -
29/09:00am 8.1 WNW 14 21 1011.4 - 1.6 - - - - - - -
29/08:30am 7.5 NW 13 19 1010.9 - 1.6 - - - - - - -
29/08:00am 7.6 WNW 16 24 1010.3 - 1.6 - - - - - - -
29/07:45am 7.5 WNW 18 28 1009.9 - 1.6 - - - - - - -
29/07:30am 7.1 WNW 17 24 1009.6 - 1.6 - - - - - - -
29/07:08am 6.6 NW 17 29 1009.1 - 1.6 - - - - - - -
29/07:00am 6.7 NW 17 25 1008.9 - 1.6 - - - - - - -
29/06:30am 6.7 WNW 16 21 1009.0 - 1.6 - - - - - - -
29/06:00am 6.5 NW 16 22 1008.6 - 1.6 - - - - - - -
29/05:30am 6.6 WNW 16 25 1008.3 - 1.6 - - - - - - -
29/05:04am 6.6 W 16 26 1008.4 - 1.6 - - - - - - -
29/05:00am 6.7 W 15 23 1008.3 - 1.6 - - - - - - -
29/04:44am 7.1 WNW 15 26 1008.1 - 1.6 - - - - - - -
29/04:30am 7.4 WNW 13 21 1008.4 - 1.6 - - - - - - -
29/04:00am 7.1 NW 12 17 1007.6 - 1.6 - - - - - - -
29/03:30am 6.7 NW 13 19 1007.2 - 1.6 - - - - - - -
29/03:00am 7.4 WNW 16 23 1006.8 - 1.6 - - - - - - -
29/02:42am 8.1 WNW 20 30 1006.3 - 1.6 - - - - - - -
29/02:30am 8.5 WNW 22 29 1006.5 - 1.6 - - - - - - -
29/02:09am 8.9 WNW 23 35 1006.4 - 1.6 - - - - - - -
29/02:00am 8.9 WNW 22 29 1006.2 - 1.6 - - - - - - -
29/01:30am 9.2 WNW 19 28 1006.0 - 1.6 - - - - - - -
29/01:20am 9.4 WNW 20 30 1005.9 - 1.6 - - - - - - -
29/01:00am 9.5 NW 19 26 1005.5 - 1.6 - - - - - - -
29/12:30am 9.7 WNW 15 22 1006.2 - 1.6 - - - - - - -
29/12:00am 9.3 WNW 12 18 1006.2 - 1.6 - - - - - - -
 
Date/Time
EST
Temp

°C
Wind Pressure Rain
since 9am
mm
Weather Cloud Vis
km
Sea
Height
m
Swell
Dir
 
Speed
knots
Gust
knots
hPa Trend Height
m
Period
s
Dir
28/11:30pm 9.9 WNW 14 21 1005.8 - 1.6 - - - - - - -
28/11:00pm 9.9 WNW 13 19 1005.7 - 1.6 - - - - - - -
28/10:30pm 10.1 WNW 15 23 1005.7 - 1.6 - - - - - - -
28/10:01pm 10.6 WNW 16 28 1005.7 - 1.6 - - - - - - -
28/10:00pm 10.6 WNW 15 28 1005.7 - 1.6 - - - - - - -
28/09:59pm 10.7 WNW 15 28 1005.7 - 1.6 - - - - - - -
28/09:30pm 10.1 WNW 8 14 1005.6 - 1.6 - - - - - - -
28/09:00pm 10.8 NW 15 22 1005.6 - 1.6 - - - - - - -
28/08:30pm 10.9 NW 13 20 1005.3 - 1.6 - - - - - - -
28/08:00pm 11.2 NW 11 17 1005.3 - 1.6 - - - - - - -
28/07:30pm 10.9 NW 7 12 1005.2 - 1.6 - - - - - - -
28/07:00pm 11.3 NW 12 19 1005.0 - 1.6 - - - - - - -
28/06:41pm 11.8 WNW 15 26 1004.8 - 1.6 - - - - - - -
28/06:30pm 12.1 WNW 12 19 1004.8 - 1.6 - - - - - - -
28/06:00pm 12.5 WNW 13 19 1004.6 - 1.6 Recent precip. - - - - - -
28/05:30pm 12.6 WNW 13 22 1004.3 - 1.6 - - - - - - -
28/05:00pm 11.9 NW 1 3 1004.2 - 1.2 - - - - - - -
28/04:30pm 11.9 NW 4 4 1003.7 - 1.2 - - - - - - -
28/04:00pm 13.0 NW 2 3 1003.5 - 1.2 - - - - - - -
28/03:30pm 13.3 NW 1 2 1003.6 - 1.2 - - - - - - -
28/03:00pm 13.9 NW 4 8 1003.9 - 1.2 Recent precip. - - - - - -
28/02:30pm 13.5 NW 7 11 1004.5 - 1.2 - - - - - - -
28/02:00pm 13.0 WNW 12 19 1004.9 - 0.8 - - - - - - -
28/01:30pm 15.3 N 6 10 1004.7 - 0.0 - - - - - - -
28/01:00pm 17.4 N 9 16 1005.0 - 0.0 - - - - - - -
28/12:30pm 17.2 N 11 17 1005.6 - 0.0 - - - - - - -
28/12:00pm 16.8 N 9 13 1006.2 - 0.0 - - - - - - -
28/11:30am 15.6 N 8 14 1006.8 - 0.0 - - - - - - -
28/11:00am 16.9 N 10 14 1007.7 - 0.0 - - - - - - -
28/10:30am 16.0 N 8 17 1008.3 - 0.0 - - - - - - -
28/10:00am 15.3 N 8 16 1008.6 - 0.0 - - - - - - -
28/09:30am 14.6 N 8 10 1008.9 - 0.0 - - - - - - -
28/09:00am 13.9 N 8 11 1009.0 - 0.2 - - - - - - -
28/08:30am 13.0 N 9 12 1009.0 - 0.2 - - - - - - -
28/08:00am 12.4 N 8 15 1009.3 - 0.2 - - - - - - -
28/07:30am 12.5 N 8 11 1009.5 - 0.2 - - - - - - -
28/07:00am 12.1 N 7 12 1009.4 - 0.2 - - - - - - -
28/06:30am 12.2 N 10 14 1009.1 - 0.2 - - - - - - -
28/06:00am 11.8 N 10 14 1009.1 - 0.2 - - - - - - -
28/05:30am 11.8 N 10 14 1009.2 - 0.2 - - - - - - -
28/05:00am 11.7 N 9 12 1009.6 - 0.2 - - - - - - -
28/04:30am 12.0 NNE 10 12 1009.8 - 0.2 - - - - - - -
28/04:00am 12.5 NNE 10 13 1010.0 - 0.2 - - - - - - -
28/03:30am 13.1 NNE 11 15 1010.1 - 0.2 - - - - - - -
28/03:00am 13.0 NNE 10 12 1010.3 - 0.2 - - - - - - -
28/02:30am 12.4 N 8 11 1010.6 - 0.2 - - - - - - -
28/02:00am 12.4 N 8 9 1010.9 - 0.2 - - - - - - -
28/01:30am 11.9 N 7 9 1010.8 - 0.2 - - - - - - -
28/01:00am 12.8 N 4 5 1011.3 - 0.2 - - - - - - -
28/12:30am 13.2 N 5 7 1011.8 - 0.2 - - - - - - -
28/12:00am 14.5 N 6 10 1011.8 - 0.0 - - - - - - -
 
Date/Time
EST
Temp

°C
Wind Pressure Rain
since 9am
mm
Weather Cloud Vis
km
Sea
Height
m
Swell
Dir
 
Speed
knots
Gust
knots
hPa Trend Height
m
Period
s
Dir
27/11:30pm 14.6 NNE 11 16 1011.7 - 0.0 - - - - - - -
27/11:00pm 14.6 N 16 26 1011.6 - 0.0 - - - - - - -
27/10:56pm 14.7 NNE 16 26 1011.5 - 0.0 - - - - - - -
27/10:30pm 14.2 N 14 22 1011.5 - 0.0 - - - - - - -
27/10:00pm 14.9 NNW 13 20 1011.7 - 0.0 - - - - - - -
27/09:30pm 14.7 N 15 25 1011.9 - 0.0 - - - - - - -
27/09:00pm 14.2 N 12 21 1012.2 - 0.0 - - - - - - -
27/08:30pm 13.9 N 10 18 1012.0 - 0.0 - - - - - - -
27/08:00pm 13.6 N 10 23 1012.2 - 0.0 - - - - - - -
27/07:30pm 13.9 NNW 10 18 1012.3 - 0.0 - - - - - - -
27/07:00pm 13.7 N 8 18 1012.3 - 0.0 - - - - - - -
27/06:30pm 14.3 N 10 18 1012.4 - 0.0 - - - - - - -
27/06:00pm 13.4 N 8 12 1012.5 - 0.0 - - - - - - -
27/05:30pm 13.8 N 11 17 1012.5 - 0.0 - - - - - - -
27/05:00pm 13.9 N 10 15 1012.6 - 0.0 - - - - - - -
27/04:30pm 14.2 NNE 12 18 1012.7 - 0.0 - - - - - - -
27/04:00pm 14.5 NNE 10 13 1013.0 - 0.0 - - - - - - -
27/03:30pm 15.6 N 12 18 1013.0 - 0.0 - - - - - - -
27/03:00pm 16.2 NNE 11 16 1013.1 - 0.0 - - - - - - -
27/02:30pm 15.7 NNE 13 19 1013.2 - 0.0 - - - - - - -
27/02:00pm 14.8 NE 10 15 1013.9 - 0.0 - - - - - - -
27/01:30pm 15.0 NNE 12 21 1014.1 - 0.0 - - - - - - -
27/01:19pm 14.4 N 16 26 1014.1 - 0.0 - - - - - - -
27/01:00pm 14.3 N 15 24 1014.6 - 0.0 - - - - - - -
27/12:30pm 15.3 N 11 20 1014.9 - 0.0 - - - - - - -
27/12:00pm 13.9 NNE 12 19 1015.6 - 0.0 - - - - - - -
27/11:30am 13.3 N 12 18 1016.3 - 0.0 - - - - - - -
27/11:00am 12.9 NNE 7 11 1017.0 - 0.0 - - - - - - -

Other Formats:

Comma delimited format used in spreadsheet applications
http://www.bom.gov.au/fwo/IDT60701/IDT60701.94951.axf

JavaScript Object Notation format (JSON) in row-major order
http://www.bom.gov.au/fwo/IDT60701/IDT60701.94951.json